Time;durP1;ratioP1;P1;durP2;ratioP2;P2;SDS_P1;SDS_P2;PMS_P1;PMS_P2;Temp;Humidity;BMP_temperature;BMP_pressure;BME280_temperature;BME280_humidity;BME280_pressure;Samples;Min_cycle;Max_cycle;Signal;HPM_P1;HPM_P2
2021/12/29 07:58:49;;;;;;;16.38;10.73;;;;;;;8.15;100.00;100538.31;5309082;27;20389;-67
2021/12/29 08:01:22;;;;;;;10.77;9.65;;;;;;;8.17;100.00;100540.81;5271395;28;20057;-66
2021/12/29 08:03:53;;;;;;;16.88;9.65;;;;;;;8.20;100.00;100546.59;5300733;28;20036;-67
2021/12/29 08:06:25;;;;;;;14.73;9.70;;;;;;;8.23;100.00;100551.59;5290698;28;20043;-66
2021/12/29 08:08:56;;;;;;;12.13;9.20;;;;;;;8.22;100.00;100546.34;5280231;28;20048;-66
2021/12/29 08:11:27;;;;;;;14.02;10.07;;;;;;;8.24;100.00;100553.22;5279449;28;20074;-67
2021/12/29 08:13:59;;;;;;;11.50;8.45;;;;;;;8.24;100.00;100556.00;5280133;28;20079;-67
2021/12/29 08:16:30;;;;;;;13.75;8.90;;;;;;;8.26;100.00;100556.53;5266663;28;20036;-67
2021/12/29 08:19:04;;;;;;;11.18;8.82;;;;;;;8.31;100.00;100561.22;5265068;28;20048;-67
2021/12/29 08:21:35;;;;;;;14.15;9.43;;;;;;;8.28;100.00;100551.56;5300957;28;20036;-67
2021/12/29 08:24:09;;;;;;;12.90;9.68;;;;;;;8.34;100.00;100551.56;5290169;28;20029;-67
2021/12/29 08:26:40;;;;;;;13.05;8.68;;;;;;;8.32;100.00;100559.28;5276747;28;20036;-67
2021/12/29 08:29:12;;;;;;;11.15;9.18;;;;;;;8.41;100.00;100560.38;5280694;28;20028;-67
2021/12/29 08:31:43;;;;;;;11.13;9.02;;;;;;;8.43;100.00;100569.22;5299159;28;20384;-66
2021/12/29 08:34:15;;;;;;;12.20;9.35;;;;;;;8.41;100.00;100568.66;5300876;28;20103;-66
2021/12/29 08:36:46;;;;;;;11.43;9.23;;;;;;;8.48;100.00;100571.97;5286817;28;20029;-65
2021/12/29 08:39:21;;;;;;;13.30;10.60;;;;;;;8.45;100.00;100559.53;5291837;28;20062;-67
2021/12/29 08:41:52;;;;;;;13.20;9.88;;;;;;;8.51;100.00;100553.97;5287018;28;20024;-67
2021/12/29 08:44:24;;;;;;;13.52;9.73;;;;;;;8.56;100.00;100548.44;5279151;28;20609;-71
2021/12/29 08:46:55;;;;;;;14.40;9.70;;;;;;;8.51;100.00;100557.56;5269586;28;20041;-73
2021/12/29 08:49:26;;;;;;;10.73;9.60;;;;;;;8.53;99.99;100555.34;5277093;28;20070;-71
2021/12/29 08:51:58;;;;;;;14.63;9.98;;;;;;;8.52;100.00;100552.91;5299807;28;20025;-72
2021/12/29 08:54:29;;;;;;;13.18;10.68;;;;;;;8.55;100.00;100557.84;5267816;28;20020;-72
2021/12/29 08:57:02;;;;;;;12.10;9.95;;;;;;;8.56;100.00;100560.31;5274081;28;20046;-69
2021/12/29 08:59:33;;;;;;;8.13;7.22;;;;;;;8.77;99.60;100568.50;5272304;28;20029;-67
2021/12/29 09:02:05;;;;;;;11.80;9.63;;;;;;;8.68;99.62;100563.56;5257295;28;20029;-69
2021/12/29 09:04:36;;;;;;;13.10;9.85;;;;;;;8.64;98.70;100570.81;5278060;28;20029;-69
2021/12/29 09:07:07;;;;;;;11.52;10.20;;;;;;;8.56;98.35;100565.84;5292644;28;20468;-70
2021/12/29 09:09:38;;;;;;;10.77;8.82;;;;;;;8.78;98.70;100557.19;5260108;28;20021;-71
2021/12/29 09:12:10;;;;;;;12.45;11.13;;;;;;;8.76;98.39;100551.09;5252169;28;20057;-68
2021/12/29 09:14:44;;;;;;;10.95;9.98;;;;;;;8.74;98.03;100556.06;5278912;28;20045;-69
2021/12/29 09:17:15;;;;;;;11.55;8.85;;;;;;;8.79;97.76;100553.28;5256676;28;20032;-69
2021/12/29 09:19:47;;;;;;;9.88;7.53;;;;;;;9.05;97.21;100561.44;5264000;28;20028;-69
2021/12/29 09:22:19;;;;;;;11.48;8.85;;;;;;;8.80;96.67;100554.13;5265170;28;20499;-69
2021/12/29 09:24:50;;;;;;;10.23;8.80;;;;;;;8.72;96.11;100555.56;5259656;28;20057;-69
2021/12/29 09:27:22;;;;;;;11.43;9.57;;;;;;;8.81;97.06;100555.78;5243271;28;20496;-69
2021/12/29 09:29:55;;;;;;;10.88;8.88;;;;;;;8.86;96.47;100542.75;5250351;28;20112;-70
2021/12/29 09:32:30;;;;;;;11.27;9.95;;;;;;;8.88;96.95;100540.53;5264049;28;20029;-70
2021/12/29 09:35:02;;;;;;;;;;;;;;;8.99;97.20;100541.28;5263912;28;20029;-71
2021/12/29 09:37:33;;;;;;;10.43;9.25;;;;;;;8.93;96.56;100550.75;5260167;28;19963;-68
2021/12/29 09:40:05;;;;;;;8.60;7.70;;;;;;;9.04;96.04;100552.31;5260676;28;20539;-69
2021/12/29 09:42:37;;;;;;;9.00;6.55;;;;;;;9.09;96.18;100546.75;5260988;28;20029;-69
2021/12/29 09:45:09;;;;;;;10.30;8.80;;;;;;;8.94;95.15;100552.38;5253990;28;20459;-69
2021/12/29 09:47:40;;;;;;;13.13;8.25;;;;;;;8.93;95.33;100554.31;5250792;28;20033;-68
2021/12/29 09:50:14;;;;;;;9.32;8.10;;;;;;;8.92;95.44;100549.91;5245980;28;20827;-68
2021/12/29 09:52:46;;;;;;;10.07;6.82;;;;;;;9.09;95.24;100530.16;5274478;28;20028;-69
2021/12/29 09:55:20;;;;;;;13.75;7.95;;;;;;;9.09;95.43;100529.31;5262569;28;20037;-68
2021/12/29 09:57:56;;;;;;;8.43;6.93;;;;;;;9.26;95.27;100526.16;5271113;28;20041;-69
2021/12/29 10:00:38;;;;;;;9.75;7.18;;;;;;;9.06;94.84;100532.69;5260238;28;20032;-67
2021/12/29 10:03:13;;;;;;;10.85;7.95;;;;;;;8.99;95.22;100532.97;5251669;28;20016;-68
2021/12/29 10:05:47;;;;;;;8.55;7.43;;;;;;;9.04;95.89;100532.94;5268002;28;20036;-67
2021/12/29 10:08:53;;;;;;;11.40;8.60;;;;;;;8.92;95.48;100540.75;5284158;28;20032;-69
2021/12/29 10:11:28;;;;;;;7.38;6.43;;;;;;;8.96;95.20;100550.16;5218977;28;20046;-69
2021/12/29 10:13:59;;;;;;;9.90;7.03;;;;;;;8.95;95.11;100544.91;5259952;28;20048;-69
2021/12/29 10:16:31;;;;;;;7.72;6.15;;;;;;;8.97;95.32;100546.28;5283322;28;20036;-69
2021/12/29 10:19:12;;;;;;;7.00;6.15;;;;;;;9.03;95.44;100544.31;5283999;28;20028;-69
2021/12/29 10:21:47;;;;;;;10.32;6.63;;;;;;;9.01;95.71;100541.81;5283464;28;20025;-69
2021/12/29 10:24:19;;;;;;;27.23;18.20;;;;;;;9.03;96.30;100539.59;5267070;28;20013;-69
2021/12/29 10:26:56;;;;;;;10.02;7.45;;;;;;;9.01;96.68;100532.72;5258975;28;20055;-69
2021/12/29 10:29:30;;;;;;;8.20;6.35;;;;;;;9.02;95.46;100523.28;5262965;28;20033;-68
2021/12/29 10:32:02;;;;;;;11.15;6.07;;;;;;;9.02;95.59;100509.47;5275345;28;20032;-68
2021/12/29 10:34:33;;;;;;;9.00;6.05;;;;;;;9.03;96.01;100514.72;5282977;28;20031;-68
2021/12/29 10:37:09;;;;;;;8.07;6.40;;;;;;;9.01;96.78;100505.88;5244948;28;20040;-69
2021/12/29 10:39:46;;;;;;;13.85;5.70;;;;;;;8.98;96.24;100500.91;5247282;28;20021;-68
2021/12/29 10:42:21;;;;;;;10.10;5.82;;;;;;;8.97;95.93;100502.00;5248904;28;20123;-68
2021/12/29 10:44:57;;;;;;;9.88;5.47;;;;;;;9.03;95.78;100503.66;5241624;28;20033;-69
2021/12/29 10:47:33;;;;;;;10.85;5.75;;;;;;;9.05;95.79;100501.44;5247632;28;20473;-70
2021/12/29 10:50:11;;;;;;;9.38;6.03;;;;;;;9.09;96.85;100502.47;5259579;28;20491;-68
2021/12/29 10:52:49;;;;;;;10.88;5.07;;;;;;;9.19;96.27;100506.31;5262108;28;20033;-68
2021/12/29 10:55:31;;;;;;;8.00;5.10;;;;;;;9.17;95.97;100503.00;5262777;28;20568;-66
2021/12/29 10:58:02;;;;;;;9.65;5.38;;;;;;;9.18;96.02;100507.41;5262655;28;20079;-68
2021/12/29 11:00:37;;;;;;;8.03;5.47;;;;;;;9.19;95.73;100511.84;5260946;28;20028;-68
2021/12/29 11:03:14;;;;;;;11.23;5.50;;;;;;;9.19;95.44;100522.91;5261587;28;20763;-69
2021/12/29 11:05:48;;;;;;;9.10;4.80;;;;;;;9.16;95.92;100529.03;5251614;28;20049;-69
2021/12/29 11:08:19;;;;;;;26.83;7.85;;;;;;;9.14;95.60;100529.28;5241785;28;20358;-69
2021/12/29 11:10:55;;;;;;;8.73;5.05;;;;;;;9.23;96.03;100521.19;5241664;28;20036;-67
2021/12/29 11:13:28;;;;;;;7.78;5.03;;;;;;;9.17;95.69;100514.06;5244212;28;20068;-67
2021/12/29 11:16:01;;;;;;;17.40;4.88;;;;;;;9.24;96.40;100517.31;5261259;28;20025;-67
2021/12/29 11:18:42;;;;;;;13.60;5.47;;;;;;;9.22;95.80;100525.09;5267217;28;20116;-68
2021/12/29 11:21:29;;;;;;;12.55;4.97;;;;;;;9.19;96.46;100533.97;5260192;28;20107;-68
2021/12/29 11:24:12;;;;;;;11.63;6.28;;;;;;;9.18;95.99;100516.56;5249049;28;20112;-68
2021/12/29 11:26:44;;;;;;;9.00;4.57;;;;;;;9.18;96.35;100504.63;5259535;28;20037;-68
2021/12/29 11:29:18;;;;;;;10.85;4.85;;;;;;;9.18;95.86;100502.72;5241011;28;20079;-67
2021/12/29 11:31:57;;;;;;;11.88;5.80;;;;;;;9.21;96.58;100499.38;5259658;28;20044;-67
2021/12/29 11:34:29;;;;;;;10.90;5.03;;;;;;;9.23;96.48;100480.53;5260802;28;20041;-68
2021/12/29 11:37:05;;;;;;;13.70;6.18;;;;;;;9.19;96.81;100473.91;5261204;28;20033;-66
2021/12/29 11:39:45;;;;;;;8.95;5.07;;;;;;;9.22;96.76;100489.13;5269091;28;20020;-66
2021/12/29 11:42:17;;;;;;;15.65;5.57;;;;;;;9.20;96.89;100485.81;5242981;28;20033;-67
2021/12/29 11:44:49;;;;;;;14.77;6.47;;;;;;;9.25;96.64;100483.00;5240944;28;20057;-69
2021/12/29 11:47:20;;;;;;;11.57;8.43;;;;;;;9.28;96.95;100474.09;5254847;28;20053;-69
2021/12/29 11:49:51;;;;;;;11.38;6.10;;;;;;;9.28;96.88;100483.25;5261617;28;20040;-69
2021/12/29 11:53:05;;;;;;;15.05;6.78;;;;;;;9.33;97.43;100485.13;5256281;28;20025;-70
2021/12/29 11:55:49;;;;;;;10.27;6.75;;;;;;;9.38;96.81;100487.03;5245984;28;20033;-69
2021/12/29 11:58:28;;;;;;;9.18;6.18;;;;;;;9.34;97.09;100493.16;5265310;28;20044;-70
2021/12/29 12:01:06;;;;;;;10.13;6.88;;;;;;;9.38;97.01;100487.84;5260714;28;20120;-72
2021/12/29 12:03:48;;;;;;;13.07;6.82;;;;;;;9.35;97.14;100496.75;5240065;28;20057;-72
2021/12/29 12:06:35;;;;;;;13.73;6.57;;;;;;;9.49;97.32;100500.50;5241088;28;20053;-73
2021/12/29 12:09:11;;;;;;;11.07;5.55;;;;;;;9.16;97.29;100493.06;5249208;28;20047;-72
2021/12/29 12:11:50;;;;;;;11.25;5.72;;;;;;;9.26;97.48;100481.91;5260227;28;20033;-70
2021/12/29 12:14:30;;;;;;;10.10;6.05;;;;;;;9.30;97.21;100483.78;5277795;28;20361;-70
2021/12/29 12:17:27;;;;;;;12.65;6.30;;;;;;;9.34;97.67;100464.66;5274343;28;20030;-70
2021/12/29 12:20:14;;;;;;;8.93;5.85;;;;;;;9.32;97.46;100461.34;5242399;28;20084;-72
2021/12/29 12:22:53;;;;;;;14.60;7.10;;;;;;;9.30;98.20;100460.81;5260933;28;20421;-72
2021/12/29 12:25:30;;;;;;;10.68;5.85;;;;;;;9.29;97.87;100450.88;5243608;28;20029;-73
2021/12/29 12:28:02;;;;;;;10.30;5.72;;;;;;;9.34;97.54;100442.53;5251806;28;20033;-71
2021/12/29 12:30:43;;;;;;;11.20;8.90;;;;;;;9.33;97.08;100429.78;5256793;28;20025;-72
2021/12/29 12:33:17;;;;;;;13.95;5.40;;;;;;;9.34;97.62;100431.47;5261955;28;20473;-74
2021/12/29 12:35:51;;;;;;;10.88;5.57;;;;;;;9.34;97.24;100429.50;5262296;28;20021;-70
2021/12/29 12:38:33;;;;;;;11.18;5.60;;;;;;;9.36;97.44;100435.56;5259421;28;20108;-71
2021/12/29 12:41:14;;;;;;;41.58;34.40;;;;;;;9.36;97.30;100430.03;5259691;28;20052;-70
2021/12/29 12:44:00;;;;;;;38.25;27.45;;;;;;;9.32;97.31;100423.44;5253930;28;20041;-70
2021/12/29 12:46:48;;;;;;;10.90;6.25;;;;;;;9.29;97.27;100424.03;5247596;28;20041;-71
2021/12/29 12:49:28;;;;;;;11.38;5.28;;;;;;;9.32;97.26;100422.59;5244171;28;20055;-68
2021/12/29 12:52:07;;;;;;;9.18;5.07;;;;;;;9.31;97.27;100410.72;5263758;28;20472;-69
2021/12/29 12:54:53;;;;;;;11.13;5.68;;;;;;;9.33;97.94;100407.66;5269044;28;20025;-72
2021/12/29 12:57:36;;;;;;;10.90;5.30;;;;;;;9.33;97.47;100400.19;5265625;28;20047;-73
2021/12/29 13:00:26;;;;;;;7.38;4.97;;;;;;;9.34;98.30;100403.78;5251319;28;20357;-72
2021/12/29 13:03:05;;;;;;;10.35;5.93;;;;;;;9.35;98.24;100392.41;5244414;28;20030;-69
2021/12/29 13:05:40;;;;;;;10.57;5.88;;;;;;;9.32;97.55;100397.72;5280832;28;20032;-69
2021/12/29 13:08:14;;;;;;;;;;;;;;;9.41;97.28;100395.13;5286157;28;20039;-67
2021/12/29 13:10:48;;;;;;;8.68;4.55;;;;;;;9.33;97.38;100391.03;5256275;28;19924;-67
2021/12/29 13:13:23;;;;;;;12.23;5.35;;;;;;;9.33;98.05;100396.56;5243436;28;20026;-66
2021/12/29 13:16:00;;;;;;;13.00;5.40;;;;;;;9.30;97.81;100397.16;5247521;28;20286;-66
2021/12/29 13:18:32;;;;;;;48.70;35.33;;;;;;;9.27;99.00;100392.22;5262665;28;20468;-66
2021/12/29 13:21:13;;;;;;;9.70;5.82;;;;;;;9.32;98.45;100384.69;5269696;28;20040;-66
2021/12/29 13:23:45;;;;;;;11.82;7.82;;;;;;;9.26;98.42;100383.09;5265114;28;20480;-67
2021/12/29 13:26:17;;;;;;;13.55;8.40;;;;;;;9.25;99.20;100386.97;5263955;28;20025;-69
2021/12/29 13:28:50;;;;;;;10.05;6.97;;;;;;;9.27;98.83;100370.09;5263753;28;20086;-69
2021/12/29 13:31:22;;;;;;;8.82;5.53;;;;;;;9.28;99.29;100366.19;5263886;28;20049;-67
2021/12/29 13:33:56;;;;;;;12.57;7.57;;;;;;;9.26;99.30;100357.38;5263520;28;20408;-67
2021/12/29 13:36:28;;;;;;;16.05;7.10;;;;;;;9.32;99.54;100348.72;5264017;28;20384;-67
2021/12/29 13:38:59;;;;;;;9.13;4.57;;;;;;;9.30;99.11;100341.81;5266697;28;20032;-68
2021/12/29 13:41:34;;;;;;;8.60;5.20;;;;;;;9.33;99.02;100335.69;5263168;28;20350;-67
2021/12/29 13:44:06;;;;;;;8.75;4.80;;;;;;;9.37;99.02;100334.00;5251923;28;20029;-67
2021/12/29 13:46:42;;;;;;;9.25;4.50;;;;;;;9.35;98.84;100331.50;5246720;28;20090;-67
2021/12/29 13:49:13;;;;;;;8.98;5.22;;;;;;;9.33;100.00;100324.63;5262991;28;20029;-67
2021/12/29 13:51:47;;;;;;;9.80;5.22;;;;;;;9.38;99.72;100326.50;5263705;28;20047;-67
2021/12/29 13:54:20;;;;;;;8.60;4.65;;;;;;;9.30;99.41;100325.22;5249031;28;20403;-67
2021/12/29 13:56:53;;;;;;;8.13;4.82;;;;;;;9.31;100.00;100332.41;5277234;28;20045;-66
2021/12/29 13:59:26;;;;;;;9.07;6.07;;;;;;;9.38;99.60;100327.34;5246193;28;20104;-66
2021/12/29 14:02:02;;;;;;;9.73;5.13;;;;;;;9.30;100.00;100325.22;5260990;28;20440;-66
2021/12/29 14:04:44;;;;;;;11.98;5.60;;;;;;;9.33;100.00;100319.09;5265385;28;20037;-66
2021/12/29 14:07:16;;;;;;;10.45;6.28;;;;;;;9.34;100.00;100323.53;5263722;28;20100;-68
2021/12/29 14:09:48;;;;;;;7.03;5.22;;;;;;;9.33;100.00;100313.56;5263186;28;20017;-69
2021/12/29 14:12:22;;;;;;;7.35;5.38;;;;;;;9.33;100.00;100313.56;5270171;28;20047;-69
2021/12/29 14:15:04;;;;;;;9.35;5.65;;;;;;;9.33;100.00;100305.25;5284566;28;20036;-69
2021/12/29 14:17:42;;;;;;;6.47;4.60;;;;;;;9.32;100.00;100309.16;5283901;28;20379;-69
2021/12/29 14:20:15;;;;;;;7.32;4.60;;;;;;;9.40;100.00;100307.69;5276741;28;20036;-68
2021/12/29 14:22:47;;;;;;;8.38;4.53;;;;;;;9.35;100.00;100300.25;5254435;28;20037;-69
2021/12/29 14:25:22;;;;;;;14.63;5.68;;;;;;;9.36;100.00;100296.38;5250639;28;20132;-69
2021/12/29 14:27:53;;;;;;;6.13;4.65;;;;;;;9.27;100.00;100300.91;5259641;28;20029;-69
2021/12/29 14:30:26;;;;;;;6.03;4.80;;;;;;;9.26;100.00;100291.78;5278852;28;20066;-68
2021/12/29 14:33:03;;;;;;;7.45;4.75;;;;;;;9.28;100.00;100285.94;5283952;28;20020;-67
2021/12/29 14:35:35;;;;;;;6.63;4.72;;;;;;;9.24;100.00;100293.19;5269793;28;20114;-68
2021/12/29 14:38:10;;;;;;;7.82;4.88;;;;;;;9.27;100.00;100287.06;5244147;28;20029;-66
2021/12/29 14:40:42;;;;;;;;;;;;;;;9.35;100.00;100283.66;5260942;28;20511;-68
2021/12/29 14:43:17;;;;;;;6.97;3.80;;;;;;;9.30;100.00;100272.63;5243118;28;19917;-66
2021/12/29 14:46:00;;;;;;;5.97;4.20;;;;;;;9.27;100.00;100270.47;5256163;28;20392;-66
2021/12/29 14:48:32;;;;;;;5.97;4.20;;;;;;;9.28;100.00;100266.56;5283867;28;20040;-66
2021/12/29 14:51:07;;;;;;;7.63;4.25;;;;;;;9.28;100.00;100277.63;5276291;28;20029;-66
2021/12/29 14:53:38;;;;;;;6.80;4.10;;;;;;;9.28;100.00;100280.41;5243777;28;20073;-69
2021/12/29 14:56:15;;;;;;;5.78;3.88;;;;;;;9.34;100.00;100282.00;5253117;28;20052;-66
2021/12/29 14:58:47;;;;;;;6.45;4.40;;;;;;;9.28;100.00;100277.63;5267775;28;20076;-69
2021/12/29 15:01:24;;;;;;;4.88;4.13;;;;;;;9.28;100.00;100274.88;5256291;28;20060;-68
2021/12/29 15:03:58;;;;;;;7.38;3.33;;;;;;;9.26;100.00;100279.91;5255544;28;20025;-70
2021/12/29 15:06:36;;;;;;;6.63;3.95;;;;;;;9.28;100.00;100288.72;5261418;28;20108;-70
2021/12/29 15:09:10;;;;;;;6.72;3.90;;;;;;;9.25;100.00;100301.19;5262304;28;20043;-68
2021/12/29 15:11:44;;;;;;;4.77;3.63;;;;;;;9.20;100.00;100304.00;5251729;28;20421;-67
2021/12/29 15:14:19;;;;;;;6.00;4.15;;;;;;;9.27;100.00;100292.59;5283458;28;20762;-67
2021/12/29 15:16:54;;;;;;;5.10;3.60;;;;;;;9.28;100.00;100284.03;5271478;28;20058;-66
2021/12/29 15:19:26;;;;;;;10.30;7.67;;;;;;;9.29;100.00;100280.13;5261898;28;20047;-66
2021/12/29 15:21:57;;;;;;;6.35;4.25;;;;;;;9.29;100.00;100279.31;5244083;28;20280;-66
2021/12/29 15:24:29;;;;;;;5.05;4.50;;;;;;;9.32;100.00;100271.22;5244671;28;20034;-66
2021/12/29 15:27:00;;;;;;;5.18;4.50;;;;;;;9.31;100.00;100277.91;5268983;28;20030;-66
2021/12/29 15:29:32;;;;;;;4.28;3.83;;;;;;;9.35;100.00;100275.34;5261939;28;20021;-66
2021/12/29 15:32:03;;;;;;;4.90;4.40;;;;;;;9.33;100.00;100274.81;5250381;28;20030;-65
2021/12/29 15:34:35;;;;;;;4.50;3.95;;;;;;;9.36;100.00;100280.59;5274124;28;20393;-65
2021/12/29 15:37:06;;;;;;;4.90;4.20;;;;;;;9.39;100.00;100272.84;5262737;28;20033;-66
2021/12/29 15:39:37;;;;;;;4.72;4.32;;;;;;;9.38;100.00;100271.97;5261109;28;20021;-67
2021/12/29 15:42:09;;;;;;;6.35;5.75;;;;;;;9.38;100.00;100271.97;5277992;28;20024;-67
2021/12/29 15:44:40;;;;;;;5.53;5.03;;;;;;;9.42;100.00;100283.31;5283091;28;20024;-67
2021/12/29 15:47:13;;;;;;;6.32;5.30;;;;;;;9.45;100.00;100280.75;5253438;28;20428;-66
2021/12/29 15:49:44;;;;;;;4.82;4.43;;;;;;;9.44;100.00;100276.34;5259458;28;20073;-64
2021/12/29 15:52:15;;;;;;;5.32;4.35;;;;;;;9.46;100.00;100290.72;5254773;28;20104;-64
2021/12/29 15:54:47;;;;;;;5.78;5.28;;;;;;;9.48;100.00;100288.47;5274078;28;20021;-64
2021/12/29 15:57:18;;;;;;;4.93;4.47;;;;;;;9.53;100.00;100280.09;5246595;28;20053;-67
2021/12/29 15:59:50;;;;;;;4.68;4.28;;;;;;;9.58;100.00;100282.78;5261395;28;20029;-68
2021/12/29 16:02:21;;;;;;;4.55;4.15;;;;;;;9.56;100.00;100279.53;5261202;28;20028;-68
2021/12/29 16:04:52;;;;;;;4.93;4.43;;;;;;;9.60;100.00;100284.47;5262057;28;20029;-67
2021/12/29 16:07:28;;;;;;;4.90;4.50;;;;;;;9.60;100.00;100278.94;5255429;28;20033;-67
2021/12/29 16:09:59;;;;;;;;;;;;;;;9.63;100.00;100276.38;5249919;28;20027;-67
2021/12/29 16:12:30;;;;;;;5.30;4.72;;;;;;;9.62;100.00;100282.22;5279554;28;20019;-67
2021/12/29 16:15:04;;;;;;;6.30;5.70;;;;;;;9.61;100.00;100284.16;5256723;28;20098;-67
2021/12/29 16:17:37;;;;;;;5.65;5.00;;;;;;;9.62;100.00;100287.75;5240941;28;20045;-65
2021/12/29 16:20:11;;;;;;;6.15;5.65;;;;;;;9.65;100.00;100282.44;5244621;28;20512;-66
2021/12/29 16:22:43;;;;;;;5.15;4.75;;;;;;;9.67;100.00;100288.50;5244485;28;20108;-67
2021/12/29 16:25:16;;;;;;;8.45;6.25;;;;;;;9.72;100.00;100298.69;5258112;28;20105;-67
2021/12/29 16:27:47;;;;;;;5.68;5.18;;;;;;;9.72;100.00;100282.91;5269496;28;20108;-67
2021/12/29 16:30:20;;;;;;;5.65;5.15;;;;;;;9.76;100.00;100291.44;5285797;28;20108;-67
2021/12/29 16:32:52;;;;;;;6.60;6.07;;;;;;;9.77;100.00;100284.78;5286298;28;20078;-66
2021/12/29 16:35:23;;;;;;;5.57;5.07;;;;;;;9.79;100.00;100293.59;5255267;28;20049;-66
2021/12/29 16:37:55;;;;;;;6.72;6.22;;;;;;;9.81;100.00;100285.81;5243801;28;20067;-67
2021/12/29 16:40:27;;;;;;;9.57;8.23;;;;;;;9.83;100.00;100289.13;5253658;28;20104;-70
2021/12/29 16:42:59;;;;;;;8.77;7.90;;;;;;;9.83;100.00;100297.44;5265179;28;20465;-68
2021/12/29 16:45:30;;;;;;;11.02;10.05;;;;;;;9.83;100.00;100297.44;5267923;28;20043;-69
2021/12/29 16:48:01;;;;;;;11.43;10.32;;;;;;;9.88;100.00;100297.38;5284983;28;20070;-68
2021/12/29 16:50:33;;;;;;;12.07;10.98;;;;;;;9.91;100.00;100294.00;5284046;28;20028;-69
2021/12/29 16:53:04;;;;;;;12.82;11.52;;;;;;;9.92;100.00;100287.34;5285962;28;20040;-69
2021/12/29 16:55:39;;;;;;;12.15;10.77;;;;;;;9.94;100.00;100289.81;5259124;28;20447;-68
2021/12/29 16:58:10;;;;;;;12.48;11.27;;;;;;;9.97;100.00;100298.34;5262138;28;20091;-69
2021/12/29 17:00:42;;;;;;;12.05;10.73;;;;;;;10.01;100.00;100307.69;5264975;28;20465;-68
2021/12/29 17:03:13;;;;;;;11.95;10.75;;;;;;;10.02;100.00;100312.13;5265073;28;20440;-67
2021/12/29 17:05:46;;;;;;;12.73;11.52;;;;;;;10.06;100.00;100330.91;5263898;28;20025;-67
2021/12/29 17:08:17;;;;;;;13.18;11.98;;;;;;;10.09;100.00;100325.59;5265203;28;20096;-67
2021/12/29 17:10:49;;;;;;;14.65;13.35;;;;;;;10.12;100.00;100329.72;5265658;28;20132;-67
2021/12/29 17:13:20;;;;;;;14.63;13.30;;;;;;;10.17;100.00;100326.88;5264049;28;20066;-67
2021/12/29 17:15:55;;;;;;;15.50;14.10;;;;;;;10.18;100.00;100325.75;5261228;28;20033;-67
2021/12/29 17:18:26;;;;;;;17.08;15.45;;;;;;;10.22;100.00;100321.25;5244834;28;20112;-68
2021/12/29 17:20:58;;;;;;;24.60;22.05;;;;;;;10.24;100.00;100319.81;5285668;28;20111;-67
2021/12/29 17:23:29;;;;;;;19.83;17.83;;;;;;;10.27;100.00;100323.94;5283968;28;20021;-67
2021/12/29 17:26:00;;;;;;;20.00;18.00;;;;;;;10.32;100.00;100312.00;5263889;28;20358;-68
2021/12/29 17:28:36;;;;;;;23.27;20.88;;;;;;;10.33;100.00;100320.03;5263599;28;20377;-67
